Forside
METAR-TAF:

METAR-TAF

Lufthavne :

Tegucigalpa, Honduras

Breddekreds: 14-03N, længdekreds: 087-13W, højde: 994 m

Aktuelle vejr

Denne rapport blev lavet for 5 minutter siden, kl. 04:00 UTC
Vind stille
Temperatur 22°C
Fugtighed 69%
Tryk 1021 hPa
Sigt 10 km eller mere
Nogle få skyer i en højde af 3000 ft

METAR: MHTG 230400Z 00000KT 9999 FEW030 22/16 Q1021 A3015 NOSIG

Tid: 22:05 (04:05 UTC)

Vejrudsigter

Denne rapport blev lavet for 5 timer og 30 minutter siden, kl. 22:35 UTC
Foreløbig gælder fra 23 på 00 UTC til 23 på 24 UTC
Vind 6 kt fra nordnordøst
Sigt 10 km eller mere
Spredte skyer i en højde af 2800 ft
ændring
fra 23 på 03 UTC til 23 på 05 UTC
Vind 5 kt fra østnordøst
Brudte skyer i en højde af 2800 ft
ændring
fra 23 på 14 UTC til 23 på 16 UTC
Vind 10 kt fra øst
Nogle få skyer i en højde af 3000 ft

TAF: MHTG 222235Z 2300/2324 02006KT 9999 SCT028 TX29/2321Z TN18/2312Z BECMG 2303/2305 07005KT BKN028 BECMG 2314/2316 08010KT FEW030

Vejrobservationer og prognoser fra mere end 4000 lufthavne (METAR og TAF).

De gule og røde prikker repræsenterer de meteorologiske stationer.

Flyt musen over at se navnet på stationen.

Så klik over at se vejr observationer og prognoser.

At skifte det kort: Klik på de grønne knapper med et sort kors for at zoome ind; på den grønne knap med en bindestreg for at zoome ud; eller på de grønne pile for tilstødende kort.


METAR-TAF: